createdAt,value
2018-02-18T00:02:26.342Z,-0.80
2018-02-18T00:04:54.590Z,-0.80
2018-02-18T00:07:22.059Z,-0.80
2018-02-18T00:09:49.531Z,-0.80
2018-02-18T00:12:17.004Z,-0.90
2018-02-18T00:14:45.901Z,-1.00
2018-02-18T00:17:14.151Z,-1.10
2018-02-18T00:19:41.623Z,-1.10
2018-02-18T00:22:09.101Z,-1.20
2018-02-18T00:24:36.574Z,-1.20
2018-02-18T00:27:04.039Z,-1.30
2018-02-18T00:29:31.563Z,-1.30
2018-02-18T00:31:59.047Z,-1.50
2018-02-18T00:34:26.632Z,-1.50
2018-02-18T00:36:54.112Z,-1.60
2018-02-18T00:39:21.601Z,-1.70
2018-02-18T00:41:49.098Z,-1.80
2018-02-18T00:44:16.582Z,-1.90
2018-02-18T00:46:44.129Z,-2.00
2018-02-18T00:49:11.599Z,-2.10
2018-02-18T00:51:39.119Z,-2.10
2018-02-18T00:54:06.597Z,-2.20
2018-02-18T00:56:34.078Z,-2.30
2018-02-18T00:59:01.658Z,-2.40
2018-02-18T01:01:29.151Z,-2.30
2018-02-18T01:03:56.632Z,-2.40
2018-02-18T01:06:24.124Z,-2.40
2018-02-18T01:08:51.604Z,-2.40
2018-02-18T01:11:19.119Z,-2.50
2018-02-18T01:13:46.591Z,-2.50
2018-02-18T01:16:14.070Z,-2.50
2018-02-18T01:18:41.586Z,-2.50
2018-02-18T01:21:09.091Z,-2.60
2018-02-18T01:23:37.328Z,-2.50
2018-02-18T01:26:04.808Z,-2.50
2018-02-18T01:28:32.285Z,-2.50
2018-02-18T01:31:00.646Z,-2.50
2018-02-18T01:33:28.226Z,-2.50
2018-02-18T01:35:55.706Z,-2.60
2018-02-18T01:38:23.174Z,-2.70
2018-02-18T01:40:50.644Z,-2.70
2018-02-18T01:43:18.135Z,-2.60
2018-02-18T01:45:45.602Z,-2.60
2018-02-18T01:48:13.114Z,-2.70
2018-02-18T01:50:40.578Z,-2.70
2018-02-18T01:53:08.054Z,-2.60
2018-02-18T01:55:35.581Z,-2.50
2018-02-18T01:58:03.058Z,-2.50
2018-02-18T02:00:30.531Z,-2.50
2018-02-18T02:02:58.055Z,-2.60
2018-02-18T02:05:25.530Z,-2.70
2018-02-18T02:07:53.021Z,-2.80
2018-02-18T02:10:20.494Z,-2.80
2018-02-18T02:12:47.986Z,-2.80
2018-02-18T02:15:15.451Z,-2.90
2018-02-18T02:17:42.921Z,-2.90
2018-02-18T02:20:10.440Z,-2.80
2018-02-18T02:22:37.914Z,-2.80
2018-02-18T02:25:05.411Z,-2.70
2018-02-18T02:27:32.885Z,-2.70
2018-02-18T02:30:00.380Z,-2.70
2018-02-18T02:32:27.880Z,-2.70
2018-02-18T02:34:55.439Z,-2.80
2018-02-18T02:37:22.914Z,-2.70
2018-02-18T02:39:51.524Z,-2.80
2018-02-18T02:42:18.995Z,-2.70
2018-02-18T02:44:46.475Z,-2.70
2018-02-18T02:47:14.006Z,-2.70
2018-02-18T02:49:41.591Z,-2.80
2018-02-18T02:52:09.055Z,-2.80
2018-02-18T02:54:36.546Z,-2.90
2018-02-18T02:57:04.015Z,-3.00
2018-02-18T02:59:31.489Z,-3.10
2018-02-18T03:01:58.994Z,-3.10
2018-02-18T03:04:26.465Z,-3.20
2018-02-18T03:06:53.954Z,-3.30
2018-02-18T03:09:21.438Z,-3.30
2018-02-18T03:11:48.909Z,-3.40
2018-02-18T03:14:16.397Z,-3.40
2018-02-18T03:16:43.878Z,-3.40
2018-02-18T03:19:11.389Z,-3.30
2018-02-18T03:21:38.865Z,-3.30
2018-02-18T03:24:06.347Z,-3.30
2018-02-18T03:26:33.817Z,-3.30
2018-02-18T03:29:01.318Z,-3.30
2018-02-18T03:31:28.802Z,-3.30
2018-02-18T03:33:56.274Z,-3.30
2018-02-18T03:36:23.762Z,-3.20
2018-02-18T03:38:51.235Z,-3.20
2018-02-18T03:41:18.739Z,-3.20
2018-02-18T03:43:46.230Z,-3.20
2018-02-18T03:46:13.710Z,-3.20
2018-02-18T03:48:41.197Z,-3.20
2018-02-18T03:51:08.684Z,-3.20
2018-02-18T03:53:36.161Z,-3.20
2018-02-18T03:56:03.654Z,-3.10
2018-02-18T03:58:31.125Z,-3.10
2018-02-18T04:00:58.622Z,-3.10
2018-02-18T04:03:26.102Z,-3.10
2018-02-18T04:05:53.686Z,-3.20
2018-02-18T04:08:21.160Z,-3.20
2018-02-18T04:10:48.633Z,-3.30
2018-02-18T04:13:16.107Z,-3.20
2018-02-18T04:15:43.640Z,-3.30
2018-02-18T04:18:11.100Z,-3.30
2018-02-18T04:20:38.611Z,-3.40
2018-02-18T04:23:06.076Z,-3.40
2018-02-18T04:25:33.562Z,-3.40
2018-02-18T04:28:01.031Z,-3.60
2018-02-18T04:30:28.531Z,-3.50
2018-02-18T04:32:56.002Z,-3.60
2018-02-18T04:35:23.545Z,-3.50
2018-02-18T04:37:51.009Z,-3.50
2018-02-18T04:40:18.479Z,-3.60
2018-02-18T04:42:45.938Z,-3.60
2018-02-18T04:45:13.459Z,-3.60
2018-02-18T04:47:40.923Z,-3.60
2018-02-18T04:50:08.441Z,-3.60
2018-02-18T04:52:36.003Z,-3.70
2018-02-18T04:55:03.461Z,-3.70
2018-02-18T04:57:30.929Z,-3.60
2018-02-18T04:59:58.453Z,-3.70
2018-02-18T05:02:25.938Z,-3.70
2018-02-18T05:04:53.403Z,-3.70
2018-02-18T05:07:20.997Z,-3.70
2018-02-18T05:09:48.468Z,-3.60
2018-02-18T05:12:15.957Z,-3.70
2018-02-18T05:14:43.418Z,-3.70
2018-02-18T05:17:10.881Z,-3.80
2018-02-18T05:19:38.358Z,-4.00
2018-02-18T05:22:05.885Z,-4.00
2018-02-18T05:24:33.369Z,-3.90
2018-02-18T05:27:00.851Z,-4.00
2018-02-18T05:29:28.315Z,-4.10
2018-02-18T05:31:55.781Z,-4.10
2018-02-18T05:34:23.260Z,-4.10
2018-02-18T05:36:50.729Z,-4.10
2018-02-18T05:39:18.257Z,-4.20
2018-02-18T05:41:45.722Z,-4.30
2018-02-18T05:44:13.189Z,-4.40
2018-02-18T05:46:40.700Z,-4.40
2018-02-18T05:49:08.171Z,-4.40
2018-02-18T05:51:35.663Z,-4.40
2018-02-18T05:54:03.138Z,-4.40
2018-02-18T05:56:30.613Z,-4.50
2018-02-18T05:58:58.110Z,-4.70
2018-02-18T06:01:25.593Z,-4.80
2018-02-18T06:03:53.185Z,-4.80
2018-02-18T06:06:20.642Z,-4.80
2018-02-18T06:08:48.133Z,-4.90
2018-02-18T06:11:15.596Z,-5.00
2018-02-18T06:13:43.072Z,-5.00
2018-02-18T06:16:10.539Z,-4.90
2018-02-18T06:18:38.006Z,-4.90
2018-02-18T06:21:06.251Z,-4.90
2018-02-18T06:23:33.747Z,-4.90
2018-02-18T06:26:01.230Z,-4.90
2018-02-18T06:28:28.698Z,-4.90
2018-02-18T06:30:56.195Z,-4.90
2018-02-18T06:33:23.662Z,-4.80
2018-02-18T06:35:51.158Z,-4.80
2018-02-18T06:38:18.743Z,-4.70
2018-02-18T06:40:46.222Z,-4.70
2018-02-18T06:43:13.690Z,-4.60
2018-02-18T06:45:41.163Z,-4.60
2018-02-18T06:48:08.630Z,-4.60
2018-02-18T06:50:36.154Z,-4.50
2018-02-18T06:53:03.631Z,-4.50
2018-02-18T06:55:31.119Z,-4.40
2018-02-18T06:57:58.639Z,-4.40
2018-02-18T07:00:26.898Z,-4.20
2018-02-18T07:02:54.385Z,-4.20
2018-02-18T07:05:21.862Z,-4.10
2018-02-18T07:07:49.340Z,-4.00
2018-02-18T07:10:16.810Z,-3.90
2018-02-18T07:12:44.278Z,-3.70
2018-02-18T07:15:11.751Z,-3.60
2018-02-18T07:17:39.659Z,-3.50
2018-02-18T07:20:07.112Z,-3.30
2018-02-18T07:22:35.362Z,-3.00
2018-02-18T07:25:02.946Z,-3.10
2018-02-18T07:27:30.437Z,-2.90
2018-02-18T07:29:57.916Z,-2.70
2018-02-18T07:32:25.397Z,-2.60
2018-02-18T07:34:52.911Z,-2.20
2018-02-18T07:37:20.519Z,-1.90
2018-02-18T07:39:48.037Z,-1.70
2018-02-18T07:42:15.518Z,-1.50
2018-02-18T07:44:43.771Z,-1.20
2018-02-18T07:47:11.344Z,-1.30
2018-02-18T07:49:39.851Z,-0.20
2018-02-18T07:52:07.341Z,-0.20
2018-02-18T07:54:34.962Z,1.00
2018-02-18T07:57:03.210Z,4.00
2018-02-18T07:59:30.658Z,3.90
2018-02-18T08:01:58.906Z,7.10
2018-02-18T08:04:26.390Z,7.10
2018-02-18T08:06:53.876Z,7.40
2018-02-18T08:09:21.351Z,7.70
2018-02-18T08:11:48.830Z,9.00
2018-02-18T08:14:16.296Z,10.40
2018-02-18T08:16:43.760Z,11.00
2018-02-18T08:19:11.282Z,11.50
2018-02-18T08:21:38.765Z,11.30
2018-02-18T08:24:06.229Z,11.50
2018-02-18T08:26:33.707Z,12.40
2018-02-18T08:29:01.182Z,12.40
2018-02-18T08:31:28.645Z,13.60
2018-02-18T08:33:56.891Z,14.50
2018-02-18T08:36:24.377Z,14.40
2018-02-18T08:38:51.905Z,13.40
2018-02-18T08:41:20.172Z,13.50
2018-02-18T08:43:47.935Z,13.40
2018-02-18T08:46:15.712Z,15.40
2018-02-18T08:48:43.280Z,14.80
2018-02-18T08:51:10.757Z,15.50
2018-02-18T08:53:38.288Z,17.30
2018-02-18T08:56:05.888Z,18.20
2018-02-18T08:58:33.335Z,19.30
2018-02-18T09:01:01.934Z,18.60
2018-02-18T09:03:29.417Z,18.10
2018-02-18T09:05:57.010Z,19.50
2018-02-18T09:08:24.806Z,19.90
2018-02-18T09:10:53.494Z,20.90
2018-02-18T09:13:21.489Z,19.70
2018-02-18T09:15:49.175Z,20.20
2018-02-18T09:18:16.865Z,18.10
2018-02-18T09:20:44.371Z,18.50
2018-02-18T09:23:11.991Z,19.30
2018-02-18T09:25:39.729Z,18.40
2018-02-18T09:28:07.344Z,17.20
2018-02-18T09:30:35.111Z,18.80
2018-02-18T09:33:02.839Z,19.90
2018-02-18T09:35:31.339Z,19.10
2018-02-18T09:37:59.235Z,18.70
2018-02-18T09:40:26.931Z,17.70
2018-02-18T09:42:54.711Z,18.90
2018-02-18T09:45:22.730Z,19.60
2018-02-18T09:47:51.334Z,18.70
2018-02-18T09:50:18.989Z,17.90
2018-02-18T09:52:46.620Z,17.00
2018-02-18T09:55:14.241Z,18.60
2018-02-18T09:57:42.649Z,19.60
2018-02-18T10:00:10.474Z,19.50
2018-02-18T10:02:38.293Z,19.70
2018-02-18T10:05:06.153Z,20.60
2018-02-18T10:07:34.080Z,20.40
2018-02-18T10:10:01.827Z,21.50
2018-02-18T10:12:30.650Z,20.90
2018-02-18T10:14:58.756Z,19.70
2018-02-18T10:17:26.735Z,20.50
2018-02-18T10:19:54.340Z,20.00
2018-02-18T10:22:22.777Z,20.40
2018-02-18T10:24:50.752Z,20.40
2018-02-18T10:27:18.540Z,21.00
2018-02-18T10:29:46.455Z,20.80
2018-02-18T10:32:14.222Z,20.60
2018-02-18T10:34:41.807Z,20.90
2018-02-18T10:37:10.133Z,20.80
2018-02-18T10:39:37.774Z,21.80
2018-02-18T10:42:05.668Z,22.40
2018-02-18T10:44:33.390Z,20.30
2018-02-18T10:47:00.963Z,19.40
2018-02-18T10:49:29.599Z,20.80
2018-02-18T10:51:57.416Z,20.80
2018-02-18T10:54:25.074Z,20.50
2018-02-18T10:56:53.617Z,19.10
2018-02-18T10:59:21.966Z,19.50
2018-02-18T11:01:51.035Z,19.50
2018-02-18T11:04:21.132Z,20.20
2018-02-18T11:06:48.682Z,20.20
2018-02-18T11:09:17.109Z,18.50
2018-02-18T11:11:44.637Z,18.50
2018-02-18T11:14:12.163Z,16.90
2018-02-18T11:16:39.656Z,17.00
2018-02-18T11:19:07.276Z,17.10
2018-02-18T11:21:34.923Z,15.90
2018-02-18T11:24:02.496Z,14.80
2018-02-18T11:26:30.289Z,15.40
2018-02-18T11:28:58.568Z,15.00
2018-02-18T11:31:26.136Z,15.00
2018-02-18T11:33:53.719Z,15.00
2018-02-18T11:36:22.014Z,15.20
2018-02-18T11:38:49.524Z,15.20
2018-02-18T11:41:17.034Z,14.30
2018-02-18T11:43:45.288Z,11.70
2018-02-18T11:46:12.774Z,11.70
2018-02-18T11:48:40.387Z,10.60
2018-02-18T11:51:07.868Z,10.20
2018-02-18T11:53:35.347Z,10.30
2018-02-18T11:56:02.840Z,11.00
2018-02-18T11:58:30.326Z,10.80
2018-02-18T12:00:57.891Z,10.40
2018-02-18T12:03:25.386Z,10.10
2018-02-18T12:05:52.899Z,9.60
2018-02-18T12:08:21.185Z,8.80
2018-02-18T12:10:50.178Z,8.80
2018-02-18T12:13:17.648Z,8.70
2018-02-18T12:15:45.121Z,8.50
2018-02-18T12:18:12.659Z,8.10
2018-02-18T12:20:40.135Z,7.50
2018-02-18T12:23:07.657Z,7.10
2018-02-18T12:25:35.939Z,6.40
2018-02-18T12:28:03.547Z,6.40
2018-02-18T12:30:31.040Z,6.10
2018-02-18T12:32:59.351Z,6.70
2018-02-18T12:35:27.625Z,7.20
2018-02-18T12:37:55.157Z,7.20
2018-02-18T12:40:22.665Z,7.80
2018-02-18T12:42:50.163Z,8.30
2018-02-18T12:45:18.496Z,8.50
2018-02-18T12:47:46.741Z,8.90
2018-02-18T12:50:14.219Z,8.90
2018-02-18T12:52:41.777Z,9.40
2018-02-18T12:55:09.276Z,9.40
2018-02-18T12:57:37.849Z,10.20
2018-02-18T13:00:05.305Z,10.20
2018-02-18T13:02:32.810Z,10.30
2018-02-18T13:05:00.284Z,9.80
2018-02-18T13:07:27.833Z,10.20
2018-02-18T13:09:56.073Z,9.10
2018-02-18T13:12:23.582Z,9.10
2018-02-18T13:14:52.596Z,8.60
2018-02-18T13:17:20.064Z,8.60
2018-02-18T13:19:47.658Z,8.10
2018-02-18T13:22:15.122Z,8.10
2018-02-18T13:24:42.596Z,7.80
2018-02-18T13:27:10.158Z,8.30
2018-02-18T13:29:37.613Z,8.40
2018-02-18T13:32:05.103Z,8.30
2018-02-18T13:34:32.577Z,8.50
2018-02-18T13:37:00.060Z,8.10
2018-02-18T13:39:27.744Z,7.90
2018-02-18T13:41:55.205Z,7.60
2018-02-18T13:44:22.678Z,7.50
2018-02-18T13:46:50.142Z,6.70
2018-02-18T13:49:17.639Z,6.00
2018-02-18T13:51:45.193Z,6.30
2018-02-18T13:54:14.538Z,6.70
2018-02-18T13:56:42.179Z,6.90
2018-02-18T13:59:10.025Z,6.70
2018-02-18T14:01:37.492Z,6.30
2018-02-18T14:04:05.725Z,5.70
2018-02-18T14:06:34.010Z,5.60
2018-02-18T14:09:02.366Z,5.60
2018-02-18T14:11:29.962Z,5.60
2018-02-18T14:13:57.485Z,5.70
2018-02-18T14:16:27.300Z,5.60
2018-02-18T14:18:54.771Z,5.70
2018-02-18T14:21:22.262Z,5.50
2018-02-18T14:23:49.961Z,5.40
2018-02-18T14:26:17.438Z,5.30
2018-02-18T14:28:44.958Z,5.20
2018-02-18T14:31:12.477Z,5.20
2018-02-18T14:33:39.951Z,5.30
2018-02-18T14:36:07.514Z,5.40
2018-02-18T14:38:35.089Z,5.40
2018-02-18T14:41:02.982Z,5.20
2018-02-18T14:43:42.410Z,5.20
2018-02-18T14:46:22.674Z,5.40
2018-02-18T14:49:02.033Z,5.40
2018-02-18T14:51:41.704Z,5.40
2018-02-18T14:54:21.191Z,5.40
2018-02-18T14:57:00.677Z,5.50
2018-02-18T14:59:28.154Z,5.50
2018-02-18T15:01:55.636Z,5.60
2018-02-18T15:04:23.141Z,5.70
2018-02-18T15:06:50.613Z,5.60
2018-02-18T15:09:18.086Z,5.60
2018-02-18T15:11:45.559Z,5.50
2018-02-18T15:14:13.062Z,5.50
2018-02-18T15:16:40.584Z,5.70
2018-02-18T15:19:08.056Z,5.70
2018-02-18T15:21:35.537Z,5.60
2018-02-18T15:24:03.117Z,5.60
2018-02-18T15:26:30.596Z,5.50
2018-02-18T15:28:58.188Z,5.50
2018-02-18T15:31:25.656Z,5.40
2018-02-18T15:33:53.127Z,5.40
2018-02-18T15:36:20.611Z,5.40
2018-02-18T15:38:48.129Z,5.30
2018-02-18T15:41:15.733Z,5.20
2018-02-18T15:43:43.302Z,5.20
2018-02-18T15:46:10.783Z,5.10
2018-02-18T15:48:38.285Z,5.10
2018-02-18T15:51:05.755Z,5.00
2018-02-18T15:53:33.289Z,4.90
2018-02-18T15:56:01.561Z,4.70
2018-02-18T15:58:29.078Z,4.70
2018-02-18T16:00:57.339Z,4.70
2018-02-18T16:03:24.895Z,4.70
2018-02-18T16:05:52.422Z,4.60
2018-02-18T16:08:19.918Z,4.60
2018-02-18T16:10:47.435Z,4.60
2018-02-18T16:13:14.989Z,4.60
2018-02-18T16:15:42.552Z,4.50
2018-02-18T16:18:10.027Z,4.50
2018-02-18T16:20:37.557Z,4.50
2018-02-18T16:23:05.222Z,4.40
2018-02-18T16:25:32.771Z,4.30
2018-02-18T16:28:00.438Z,4.20
2018-02-18T16:30:27.945Z,4.10
2018-02-18T16:32:55.450Z,4.00
2018-02-18T16:35:23.988Z,3.70
2018-02-18T16:37:52.527Z,3.50
2018-02-18T16:40:20.211Z,3.50
2018-02-18T16:42:47.755Z,3.40
2018-02-18T16:45:16.034Z,3.20
2018-02-18T16:47:43.681Z,3.10
2018-02-18T16:50:11.977Z,3.10
2018-02-18T16:52:39.468Z,3.10
2018-02-18T16:55:07.815Z,3.10
2018-02-18T16:57:35.323Z,3.10
2018-02-18T17:00:02.808Z,3.10
2018-02-18T17:02:30.475Z,3.10
2018-02-18T17:04:57.990Z,3.00
2018-02-18T17:07:25.479Z,3.10
2018-02-18T17:09:53.336Z,3.00
2018-02-18T17:12:21.575Z,2.80
2018-02-18T17:14:49.041Z,2.80
2018-02-18T17:17:17.282Z,2.90
2018-02-18T17:19:45.216Z,2.80
2018-02-18T17:22:13.198Z,2.80
2018-02-18T17:24:40.682Z,2.90
2018-02-18T17:27:08.160Z,2.80
2018-02-18T17:29:35.622Z,2.80
2018-02-18T17:32:03.128Z,2.80
2018-02-18T17:34:30.664Z,2.70
2018-02-18T17:36:59.133Z,2.60
2018-02-18T17:39:26.618Z,2.60
2018-02-18T17:41:55.016Z,2.50
2018-02-18T17:44:23.283Z,2.50
2018-02-18T17:46:50.924Z,2.50
2018-02-18T17:49:18.458Z,2.50
2018-02-18T17:51:46.082Z,2.50
2018-02-18T17:54:13.605Z,2.50
2018-02-18T17:56:41.966Z,2.50
2018-02-18T17:59:09.484Z,2.50
2018-02-18T18:01:37.786Z,2.50
2018-02-18T18:04:05.384Z,2.50
2018-02-18T18:06:33.632Z,2.40
2018-02-18T18:09:01.169Z,2.40
2018-02-18T18:11:28.707Z,2.30
2018-02-18T18:13:56.167Z,2.30
2018-02-18T18:16:23.725Z,2.20
2018-02-18T18:18:51.996Z,2.10
2018-02-18T18:21:19.594Z,2.10
2018-02-18T18:23:47.873Z,1.90
2018-02-18T18:26:15.352Z,1.90
2018-02-18T18:28:43.686Z,1.80
2018-02-18T18:31:11.221Z,1.70
2018-02-18T18:33:39.486Z,1.80
2018-02-18T18:36:06.988Z,1.80
2018-02-18T18:38:34.566Z,1.80
2018-02-18T18:41:02.826Z,1.60
2018-02-18T18:43:30.304Z,1.60
2018-02-18T18:45:57.940Z,1.50
2018-02-18T18:48:26.904Z,1.30
2018-02-18T18:50:54.391Z,1.30
2018-02-18T18:53:21.859Z,1.30
2018-02-18T18:55:49.343Z,1.30
2018-02-18T18:58:17.143Z,1.30
2018-02-18T19:00:44.641Z,1.20
2018-02-18T19:03:12.146Z,1.20
2018-02-18T19:05:39.650Z,1.20
2018-02-18T19:08:08.065Z,1.10
2018-02-18T19:10:36.305Z,1.10
2018-02-18T19:13:04.102Z,1.10
2018-02-18T19:15:31.581Z,1.20
2018-02-18T19:17:59.078Z,1.20
2018-02-18T19:20:26.606Z,1.20
2018-02-18T19:22:54.085Z,1.10
2018-02-18T19:25:21.569Z,1.10
2018-02-18T19:27:49.161Z,1.20
2018-02-18T19:30:16.702Z,1.20
2018-02-18T19:32:44.199Z,1.20
2018-02-18T19:35:11.674Z,1.30
2018-02-18T19:37:39.151Z,1.30
2018-02-18T19:40:06.694Z,1.30
2018-02-18T19:42:34.535Z,1.20
2018-02-18T19:45:02.074Z,1.30
2018-02-18T19:47:29.661Z,1.20
2018-02-18T19:49:57.252Z,1.20
2018-02-18T19:52:24.784Z,1.20
2018-02-18T19:54:52.310Z,1.10
2018-02-18T19:57:19.779Z,1.10
2018-02-18T19:59:47.320Z,1.10
2018-02-18T20:02:14.783Z,1.10
2018-02-18T20:04:42.327Z,1.10
2018-02-18T20:07:09.851Z,1.00
2018-02-18T20:09:37.378Z,1.00
2018-02-18T20:12:04.967Z,1.00
2018-02-18T20:14:32.447Z,1.00
2018-02-18T20:16:59.928Z,0.90
2018-02-18T20:19:28.190Z,0.90
2018-02-18T20:21:55.667Z,0.90
2018-02-18T20:24:23.230Z,1.00
2018-02-18T20:26:51.519Z,0.90
2018-02-18T20:29:19.077Z,0.90
2018-02-18T20:31:47.498Z,1.00
2018-02-18T20:34:15.024Z,0.90
2018-02-18T20:36:42.580Z,0.90
2018-02-18T20:39:10.810Z,1.00
2018-02-18T20:41:38.351Z,0.90
2018-02-18T20:44:05.816Z,1.00
2018-02-18T20:46:33.323Z,0.90
2018-02-18T20:49:00.795Z,1.00
2018-02-18T20:51:28.266Z,1.10
2018-02-18T20:53:55.730Z,1.00
2018-02-18T20:56:23.201Z,1.00
2018-02-18T20:58:51.462Z,0.90
2018-02-18T21:01:19.734Z,0.90
2018-02-18T21:03:47.247Z,0.90
2018-02-18T21:06:14.719Z,0.90
2018-02-18T21:08:42.247Z,0.90
2018-02-18T21:11:10.495Z,0.80
2018-02-18T21:13:37.988Z,0.80
2018-02-18T21:16:05.503Z,0.80
2018-02-18T21:18:32.999Z,0.80
2018-02-18T21:21:00.473Z,0.80
2018-02-18T21:23:28.078Z,0.70
2018-02-18T21:25:55.646Z,0.70
2018-02-18T21:28:23.155Z,0.70
2018-02-18T21:30:50.987Z,0.70
2018-02-18T21:33:18.466Z,0.60
2018-02-18T21:35:46.695Z,0.50
2018-02-18T21:38:14.211Z,0.50
2018-02-18T21:40:41.762Z,0.50
2018-02-18T21:43:09.293Z,0.40
2018-02-18T21:45:36.802Z,0.50
2018-02-18T21:48:04.280Z,0.50
2018-02-18T21:50:31.758Z,0.50
2018-02-18T21:52:59.315Z,0.50
2018-02-18T21:55:26.779Z,0.50
2018-02-18T21:57:55.045Z,0.30
2018-02-18T22:00:22.571Z,0.30
2018-02-18T22:02:50.925Z,0.20
2018-02-18T22:05:18.390Z,0.20
2018-02-18T22:07:45.882Z,0.30
2018-02-18T22:10:13.427Z,0.30
2018-02-18T22:12:40.906Z,0.30
2018-02-18T22:15:09.145Z,0.20
2018-02-18T22:17:36.642Z,0.20
2018-02-18T22:20:04.241Z,0.10
2018-02-18T22:22:31.783Z,0.10
2018-02-18T22:25:00.017Z,0.00
2018-02-18T22:27:27.780Z,-0.10
2018-02-18T22:29:56.025Z,-0.30
2018-02-18T22:32:23.514Z,-0.30
2018-02-18T22:34:51.007Z,-0.40
2018-02-18T22:37:18.507Z,-0.50
2018-02-18T22:39:46.136Z,-0.70
2018-02-18T22:42:14.411Z,-0.80
2018-02-18T22:44:41.904Z,-0.80
2018-02-18T22:47:09.369Z,-0.90
2018-02-18T22:49:36.903Z,-1.00
2018-02-18T22:52:05.186Z,-1.10
2018-02-18T22:54:32.704Z,-1.10
2018-02-18T22:57:00.264Z,-1.20
2018-02-18T22:59:27.741Z,-1.20
2018-02-18T23:01:55.242Z,-1.20
2018-02-18T23:04:22.757Z,-1.30
2018-02-18T23:06:51.002Z,-1.30
2018-02-18T23:09:18.500Z,-1.40
2018-02-18T23:11:46.088Z,-1.30
2018-02-18T23:14:13.681Z,-1.20
2018-02-18T23:16:41.153Z,-1.10
2018-02-18T23:19:08.756Z,-1.10
2018-02-18T23:21:37.066Z,-1.00
2018-02-18T23:24:04.634Z,-1.00
2018-02-18T23:26:32.151Z,-1.00
2018-02-18T23:28:59.631Z,-0.90
2018-02-18T23:31:27.139Z,-0.90
2018-02-18T23:33:54.645Z,-0.80
2018-02-18T23:36:22.177Z,-0.80
2018-02-18T23:38:49.720Z,-0.70
2018-02-18T23:41:17.467Z,-0.70
2018-02-18T23:43:45.050Z,-0.70
2018-02-18T23:46:12.613Z,-0.90
2018-02-18T23:48:40.084Z,-1.00
2018-02-18T23:51:07.568Z,-1.10
2018-02-18T23:53:35.058Z,-1.20
2018-02-18T23:56:02.730Z,-1.30
2018-02-18T23:58:30.197Z,-1.40
